createdAt,value
2017-05-29T00:01:05.140Z,47.60
2017-05-29T00:03:33.432Z,48.00
2017-05-29T00:06:01.737Z,48.20
2017-05-29T00:08:30.050Z,47.70
2017-05-29T00:10:57.599Z,47.70
2017-05-29T00:13:25.875Z,48.00
2017-05-29T00:15:54.184Z,48.00
2017-05-29T00:18:23.307Z,48.30
2017-05-29T00:20:51.661Z,48.50
2017-05-29T00:23:19.942Z,48.70
2017-05-29T00:25:48.261Z,48.60
2017-05-29T00:28:16.556Z,48.80
2017-05-29T00:30:44.842Z,49.00
2017-05-29T00:33:13.123Z,48.90
2017-05-29T00:35:41.409Z,49.00
2017-05-29T00:38:09.684Z,49.30
2017-05-29T00:40:37.970Z,49.30
2017-05-29T00:43:06.259Z,49.20
2017-05-29T00:45:34.692Z,49.30
2017-05-29T00:48:02.977Z,49.50
2017-05-29T00:50:31.271Z,49.60
2017-05-29T00:52:59.555Z,49.80
2017-05-29T00:55:27.838Z,50.00
2017-05-29T00:57:56.131Z,50.20
2017-05-29T01:00:24.421Z,50.30
2017-05-29T01:02:52.700Z,50.80
2017-05-29T01:05:20.989Z,51.00
2017-05-29T01:07:49.272Z,50.90
2017-05-29T01:10:17.531Z,51.10
2017-05-29T01:12:45.806Z,51.70
2017-05-29T01:15:14.102Z,52.30
2017-05-29T01:17:42.393Z,52.50
2017-05-29T01:20:10.670Z,53.30
2017-05-29T01:22:38.974Z,52.90
2017-05-29T01:25:07.267Z,53.10
2017-05-29T01:27:35.539Z,53.60
2017-05-29T01:30:03.814Z,53.60
2017-05-29T01:32:32.116Z,53.70
2017-05-29T01:35:00.438Z,53.50
2017-05-29T01:37:28.773Z,53.30
2017-05-29T01:39:57.053Z,53.30
2017-05-29T01:42:25.330Z,53.10
2017-05-29T01:44:53.621Z,53.00
2017-05-29T01:47:21.893Z,53.00
2017-05-29T01:49:50.160Z,52.70
2017-05-29T01:52:18.458Z,52.20
2017-05-29T01:54:46.737Z,51.90
2017-05-29T01:57:15.011Z,51.70
2017-05-29T01:59:43.327Z,51.50
2017-05-29T02:02:11.625Z,51.50
2017-05-29T02:04:39.900Z,51.60
2017-05-29T02:07:08.194Z,51.50
2017-05-29T02:09:36.486Z,51.30
2017-05-29T02:12:04.755Z,50.90
2017-05-29T02:14:33.063Z,50.70
2017-05-29T02:17:01.359Z,50.30
2017-05-29T02:19:29.659Z,50.10
2017-05-29T02:21:57.938Z,50.10
2017-05-29T02:24:26.230Z,50.50
2017-05-29T02:26:54.530Z,49.80
2017-05-29T02:29:22.817Z,49.80
2017-05-29T02:31:51.100Z,50.00
2017-05-29T02:34:19.497Z,50.10
2017-05-29T02:36:47.782Z,50.20
2017-05-29T02:39:16.108Z,50.00
2017-05-29T02:41:44.395Z,49.90
2017-05-29T02:44:12.710Z,50.20
2017-05-29T02:46:41.022Z,50.10
2017-05-29T02:49:09.297Z,50.60
2017-05-29T02:51:37.774Z,50.20
2017-05-29T02:54:06.070Z,50.40
2017-05-29T02:56:34.360Z,50.60
2017-05-29T02:59:02.637Z,50.30
2017-05-29T03:01:30.912Z,50.40
2017-05-29T03:03:59.201Z,50.40
2017-05-29T03:06:27.494Z,51.10
2017-05-29T03:08:55.777Z,50.10
2017-05-29T03:11:24.069Z,50.30
2017-05-29T03:13:52.346Z,50.40
2017-05-29T03:16:20.635Z,50.10
2017-05-29T03:18:48.929Z,49.90
2017-05-29T03:21:17.239Z,49.60
2017-05-29T03:23:45.503Z,49.50
2017-05-29T03:26:13.794Z,49.60
2017-05-29T03:28:42.098Z,49.60
2017-05-29T03:31:10.391Z,49.60
2017-05-29T03:33:38.673Z,50.00
2017-05-29T03:36:07.141Z,50.00
2017-05-29T03:38:35.412Z,50.10
2017-05-29T03:41:03.743Z,50.10
2017-05-29T03:43:32.031Z,50.50
2017-05-29T03:46:00.314Z,50.40
2017-05-29T03:48:28.608Z,50.40
2017-05-29T03:50:56.877Z,50.70
2017-05-29T03:53:25.165Z,50.80
2017-05-29T03:55:53.462Z,51.00
2017-05-29T03:58:21.740Z,50.70
2017-05-29T04:00:50.031Z,50.70
2017-05-29T04:03:18.340Z,51.00
2017-05-29T04:05:46.643Z,50.90
2017-05-29T04:08:14.919Z,51.10
2017-05-29T04:10:43.221Z,51.30
2017-05-29T04:13:11.489Z,51.20
2017-05-29T04:15:39.798Z,51.20
2017-05-29T04:18:08.429Z,51.60
2017-05-29T04:20:36.723Z,51.50
2017-05-29T04:23:05.009Z,51.30
2017-05-29T04:25:33.339Z,51.20
2017-05-29T04:28:01.617Z,51.10
2017-05-29T04:30:29.922Z,51.00
2017-05-29T04:32:58.203Z,50.90
2017-05-29T04:35:26.875Z,50.00
2017-05-29T04:37:55.182Z,49.80
2017-05-29T04:40:23.455Z,49.90
2017-05-29T04:42:51.741Z,49.80
2017-05-29T04:45:20.009Z,50.00
2017-05-29T04:47:48.303Z,50.00
2017-05-29T04:50:16.596Z,49.90
2017-05-29T04:52:44.894Z,49.30
2017-05-29T04:55:13.192Z,48.10
2017-05-29T04:57:41.483Z,47.90
2017-05-29T05:00:09.766Z,47.70
2017-05-29T05:02:38.092Z,47.60
2017-05-29T05:05:06.401Z,47.20
2017-05-29T05:07:34.671Z,46.90
2017-05-29T05:10:03.023Z,46.70
2017-05-29T05:12:31.307Z,47.10
2017-05-29T05:14:59.615Z,46.70
2017-05-29T05:17:27.891Z,46.50
2017-05-29T05:19:56.169Z,46.30
2017-05-29T05:22:24.449Z,44.80
2017-05-29T05:24:52.743Z,44.80
2017-05-29T05:27:21.063Z,45.20
2017-05-29T05:29:49.372Z,43.70
2017-05-29T05:32:17.646Z,43.90
2017-05-29T05:34:45.931Z,43.20
2017-05-29T05:37:14.228Z,42.60
2017-05-29T05:39:42.528Z,42.90
2017-05-29T05:42:10.807Z,42.60
2017-05-29T05:44:39.123Z,42.20
2017-05-29T05:47:07.446Z,41.80
2017-05-29T05:49:35.707Z,41.90
2017-05-29T05:52:03.969Z,41.60
2017-05-29T05:54:32.338Z,40.20
2017-05-29T05:57:00.617Z,40.20
2017-05-29T05:59:28.941Z,41.40
2017-05-29T06:01:58.128Z,42.00
2017-05-29T06:04:26.417Z,42.00
2017-05-29T06:06:54.940Z,42.50
2017-05-29T06:09:23.224Z,41.20
2017-05-29T06:11:51.499Z,40.20
2017-05-29T06:14:19.837Z,39.50
2017-05-29T06:16:49.574Z,39.10
2017-05-29T06:19:17.857Z,39.50
2017-05-29T06:21:46.161Z,39.70
2017-05-29T06:24:14.502Z,39.70
2017-05-29T06:26:42.812Z,39.50
2017-05-29T06:29:11.097Z,39.00
2017-05-29T06:31:39.390Z,39.80
2017-05-29T06:34:07.671Z,39.70
2017-05-29T06:36:35.962Z,39.90
2017-05-29T06:39:04.224Z,39.40
2017-05-29T06:41:32.519Z,39.30
2017-05-29T06:44:00.800Z,39.70
2017-05-29T06:46:29.105Z,39.30
2017-05-29T06:48:57.405Z,39.80
2017-05-29T06:51:25.692Z,39.80
2017-05-29T06:53:54.010Z,40.10
2017-05-29T06:56:22.316Z,39.20
2017-05-29T06:58:50.582Z,39.20
2017-05-29T07:01:18.862Z,39.70
2017-05-29T07:03:47.180Z,39.30
2017-05-29T07:06:15.461Z,39.10
2017-05-29T07:08:43.754Z,39.30
2017-05-29T07:11:13.060Z,39.10
2017-05-29T07:13:41.387Z,39.20
2017-05-29T07:16:09.743Z,39.00
2017-05-29T07:18:38.051Z,39.10
2017-05-29T07:21:06.376Z,39.30
2017-05-29T07:23:34.706Z,38.70
2017-05-29T07:26:03.005Z,39.20
2017-05-29T07:28:31.353Z,39.40
2017-05-29T07:30:59.647Z,39.90
2017-05-29T07:33:27.208Z,40.00
2017-05-29T07:35:55.502Z,39.50
2017-05-29T07:38:23.822Z,39.50
2017-05-29T07:40:52.112Z,40.10
2017-05-29T07:43:20.435Z,40.10
2017-05-29T07:45:48.695Z,40.50
2017-05-29T07:48:17.001Z,40.10
2017-05-29T07:50:45.307Z,39.90
2017-05-29T07:53:13.585Z,40.10
2017-05-29T07:55:41.858Z,40.20
2017-05-29T07:58:10.189Z,40.70
2017-05-29T08:00:38.488Z,41.60
2017-05-29T08:03:06.849Z,40.30
2017-05-29T08:05:35.151Z,40.90
2017-05-29T08:08:03.428Z,40.50
2017-05-29T08:10:31.716Z,40.60
2017-05-29T08:12:59.235Z,40.60
2017-05-29T08:15:27.523Z,41.20
2017-05-29T08:17:55.967Z,41.30
2017-05-29T08:20:24.287Z,41.40
2017-05-29T08:22:52.669Z,41.90
2017-05-29T08:25:20.979Z,41.80
2017-05-29T08:27:49.260Z,42.60
2017-05-29T08:30:17.600Z,42.80
2017-05-29T08:32:45.904Z,42.90
2017-05-29T08:35:14.194Z,42.50
2017-05-29T08:37:42.500Z,42.90
2017-05-29T08:40:10.780Z,43.10
2017-05-29T08:42:39.047Z,43.60
2017-05-29T08:45:07.415Z,43.50
2017-05-29T08:47:35.723Z,43.10
2017-05-29T08:50:04.080Z,43.00
2017-05-29T08:52:31.600Z,43.00
2017-05-29T08:54:59.924Z,43.00
2017-05-29T08:57:28.225Z,43.50
2017-05-29T08:59:56.534Z,43.40
2017-05-29T09:02:24.843Z,43.40
2017-05-29T09:04:53.123Z,43.10
2017-05-29T09:07:21.411Z,43.20
2017-05-29T09:09:49.707Z,43.20
2017-05-29T09:12:17.979Z,43.00
2017-05-29T09:14:46.272Z,42.70
2017-05-29T09:17:14.625Z,42.60
2017-05-29T09:19:42.901Z,42.80
2017-05-29T09:22:11.244Z,43.10
2017-05-29T09:24:39.514Z,43.10
2017-05-29T09:27:08.003Z,43.90
2017-05-29T09:29:37.282Z,43.80
2017-05-29T09:32:05.550Z,43.00
2017-05-29T09:34:33.836Z,43.20
2017-05-29T09:37:03.021Z,42.50
2017-05-29T09:39:31.312Z,41.80
2017-05-29T09:41:59.585Z,40.90
2017-05-29T09:44:27.854Z,41.10
2017-05-29T09:46:56.132Z,41.40
2017-05-29T09:49:24.406Z,41.70
2017-05-29T09:51:52.695Z,42.20
2017-05-29T09:54:20.982Z,42.20
2017-05-29T09:56:49.267Z,41.60
2017-05-29T09:59:17.547Z,40.20
2017-05-29T10:01:45.829Z,40.40
2017-05-29T10:04:14.131Z,40.80
2017-05-29T10:06:42.440Z,40.40
2017-05-29T10:09:10.744Z,40.40
2017-05-29T10:11:39.178Z,40.10
2017-05-29T10:14:08.293Z,40.70
2017-05-29T10:16:36.631Z,39.90
2017-05-29T10:19:04.980Z,40.20
2017-05-29T10:21:33.279Z,40.00
2017-05-29T10:24:01.603Z,39.70
2017-05-29T10:26:29.975Z,37.70
2017-05-29T10:28:58.263Z,38.30
2017-05-29T10:31:26.566Z,39.00
2017-05-29T10:33:54.852Z,38.70
2017-05-29T10:36:23.666Z,38.00
2017-05-29T10:38:52.010Z,35.40
2017-05-29T10:41:20.322Z,32.60
2017-05-29T10:43:48.621Z,30.80
2017-05-29T10:46:16.931Z,29.20
2017-05-29T10:48:45.213Z,27.70
2017-05-29T10:51:13.510Z,26.50
2017-05-29T10:53:41.848Z,24.90
2017-05-29T10:56:10.166Z,24.30
2017-05-29T10:58:38.504Z,23.60
2017-05-29T11:01:06.877Z,23.10
2017-05-29T11:03:35.161Z,20.80
2017-05-29T11:06:03.443Z,21.10
2017-05-29T11:08:31.735Z,21.10
2017-05-29T11:11:00.035Z,21.30
2017-05-29T11:13:28.344Z,21.10
2017-05-29T11:15:56.616Z,20.00
2017-05-29T11:18:24.916Z,19.90
2017-05-29T11:20:53.215Z,19.90
2017-05-29T11:23:21.479Z,19.80
2017-05-29T11:25:49.770Z,20.30
2017-05-29T11:28:18.079Z,20.30
2017-05-29T11:30:46.337Z,20.30
2017-05-29T11:33:14.617Z,20.20
2017-05-29T11:35:42.946Z,19.10
2017-05-29T11:38:11.247Z,19.40
2017-05-29T11:40:39.526Z,19.10
2017-05-29T11:43:07.832Z,18.30
2017-05-29T11:45:36.125Z,17.50
2017-05-29T11:48:04.410Z,16.80
2017-05-29T11:50:32.695Z,16.70
2017-05-29T11:53:01.035Z,17.20
2017-05-29T11:55:29.341Z,17.00
2017-05-29T11:57:57.620Z,17.70
2017-05-29T12:00:25.979Z,18.10
2017-05-29T12:02:54.257Z,18.20
2017-05-29T12:05:22.567Z,18.20
2017-05-29T12:07:50.924Z,18.90
2017-05-29T12:10:19.199Z,18.60
2017-05-29T12:12:47.569Z,18.20
2017-05-29T12:15:15.819Z,18.40
2017-05-29T12:17:44.095Z,18.60
2017-05-29T12:20:12.397Z,18.10
2017-05-29T12:22:40.686Z,19.40
2017-05-29T12:25:08.960Z,19.90
2017-05-29T12:27:37.260Z,21.00
2017-05-29T12:30:05.546Z,22.00
2017-05-29T12:32:33.871Z,21.80
2017-05-29T12:35:02.167Z,22.00
2017-05-29T12:37:31.426Z,22.00
2017-05-29T12:39:59.726Z,22.00
2017-05-29T12:42:28.019Z,21.60
2017-05-29T12:44:56.306Z,21.70
2017-05-29T12:47:24.580Z,21.90
2017-05-29T12:49:52.856Z,22.30
2017-05-29T12:52:21.144Z,22.50
2017-05-29T12:54:49.431Z,23.20
2017-05-29T12:57:17.750Z,23.20
2017-05-29T12:59:46.067Z,23.00
2017-05-29T13:02:14.377Z,23.50
2017-05-29T13:04:42.652Z,24.00
2017-05-29T13:07:10.931Z,24.10
2017-05-29T13:09:39.221Z,24.90
2017-05-29T13:12:07.516Z,25.70
2017-05-29T13:14:35.808Z,26.70
2017-05-29T13:17:04.103Z,26.70
2017-05-29T13:19:32.433Z,27.00
2017-05-29T13:21:59.955Z,27.00
2017-05-29T13:24:28.257Z,27.60
2017-05-29T13:26:56.558Z,28.00
2017-05-29T13:29:24.824Z,28.40
2017-05-29T13:31:52.368Z,28.40
2017-05-29T13:34:20.661Z,29.90
2017-05-29T13:36:48.965Z,29.80
2017-05-29T13:39:17.239Z,29.80
2017-05-29T13:41:45.523Z,30.00
2017-05-29T13:44:13.854Z,29.80
2017-05-29T14:04:02.630Z,29.30
2017-05-29T14:06:30.159Z,29.50
2017-05-29T14:08:58.444Z,29.40
2017-05-29T14:11:26.732Z,29.70
2017-05-29T14:13:55.099Z,29.30
2017-05-29T14:16:23.438Z,29.80
2017-05-29T14:18:51.718Z,29.50
2017-05-29T14:21:19.989Z,29.20
2017-05-29T14:23:48.280Z,28.70
2017-05-29T14:26:16.555Z,28.60
2017-05-29T14:28:44.832Z,29.10
2017-05-29T14:31:13.148Z,28.50
2017-05-29T14:33:41.450Z,28.80
2017-05-29T14:36:09.797Z,28.70
2017-05-29T14:38:38.097Z,29.00
2017-05-29T14:41:06.389Z,29.20
2017-05-29T14:43:34.685Z,29.10
2017-05-29T14:46:02.983Z,29.20
2017-05-29T14:48:31.331Z,29.10
2017-05-29T14:50:59.657Z,29.10
2017-05-29T14:53:27.996Z,29.20
2017-05-29T14:55:56.314Z,29.20
2017-05-29T14:58:24.594Z,28.70
2017-05-29T15:00:52.879Z,28.70
2017-05-29T15:03:21.265Z,28.50
2017-05-29T15:05:49.559Z,28.70
2017-05-29T15:08:17.851Z,29.10
2017-05-29T15:10:46.148Z,28.80
2017-05-29T15:13:14.434Z,28.90
2017-05-29T15:15:42.742Z,28.90
2017-05-29T15:18:11.035Z,28.80
2017-05-29T15:20:39.315Z,28.40
2017-05-29T15:23:08.080Z,29.00
2017-05-29T15:25:36.373Z,29.50
2017-05-29T15:28:04.725Z,29.60
2017-05-29T15:30:33.052Z,29.10
2017-05-29T15:33:01.729Z,29.00
2017-05-29T15:35:30.044Z,29.50
2017-05-29T15:37:58.370Z,29.30
2017-05-29T15:40:26.644Z,29.40
2017-05-29T15:42:54.949Z,29.60
2017-05-29T15:45:23.311Z,29.80
2017-05-29T15:47:51.638Z,29.70
2017-05-29T15:50:19.967Z,29.60
2017-05-29T15:52:48.287Z,29.70
2017-05-29T15:55:16.585Z,29.90
2017-05-29T15:57:44.863Z,31.10
2017-05-29T16:00:14.353Z,30.80
2017-05-29T16:02:42.669Z,30.10
2017-05-29T16:05:10.990Z,30.20
2017-05-29T16:24:59.522Z,28.00
2017-05-29T16:27:27.824Z,27.50
2017-05-29T16:29:56.115Z,26.50
2017-05-29T16:32:24.430Z,26.60
2017-05-29T16:34:53.269Z,25.90
2017-05-29T16:37:21.612Z,25.30
2017-05-29T16:39:49.119Z,25.20
2017-05-29T16:42:17.424Z,23.90
2017-05-29T16:44:45.695Z,24.00
2017-05-29T16:47:14.431Z,24.10
2017-05-29T16:49:42.702Z,24.90
2017-05-29T16:52:11.006Z,25.10
2017-05-29T16:54:39.323Z,25.20
2017-05-29T16:57:07.592Z,24.40
2017-05-29T16:59:35.888Z,23.30
2017-05-29T17:02:06.387Z,22.50
2017-05-29T17:04:34.728Z,22.00
2017-05-29T17:07:03.028Z,22.10
2017-05-29T17:09:31.298Z,22.20
2017-05-29T17:11:59.620Z,22.30
2017-05-29T17:14:28.111Z,22.60
2017-05-29T17:16:56.408Z,22.90
2017-05-29T17:19:24.714Z,23.40
2017-05-29T17:21:52.996Z,23.20
2017-05-29T17:24:21.290Z,23.80
2017-05-29T17:26:49.605Z,24.40
2017-05-29T17:29:17.894Z,24.90
2017-05-29T17:31:46.192Z,25.70
2017-05-29T17:34:14.503Z,26.20
2017-05-29T17:36:42.784Z,26.80
2017-05-29T17:39:11.066Z,27.20
2017-05-29T17:41:39.336Z,27.60
2017-05-29T17:44:07.662Z,28.10
2017-05-29T17:46:35.944Z,28.50
2017-05-29T17:49:04.243Z,28.90
2017-05-29T17:51:32.539Z,29.20
2017-05-29T17:54:00.995Z,29.70
2017-05-29T17:56:29.291Z,30.00
2017-05-29T17:58:57.581Z,30.00
2017-05-29T18:01:25.306Z,30.00
2017-05-29T18:03:53.609Z,31.10
2017-05-29T18:06:21.899Z,31.30
2017-05-29T18:08:50.277Z,31.40
2017-05-29T18:11:18.551Z,31.50
2017-05-29T18:13:46.855Z,31.20
2017-05-29T18:16:15.157Z,32.10
2017-05-29T18:18:43.585Z,31.70
2017-05-29T18:21:11.888Z,31.80
2017-05-29T18:23:40.174Z,32.20
2017-05-29T18:26:08.538Z,32.20
2017-05-29T18:28:36.843Z,32.10
2017-05-29T18:31:05.131Z,32.30
2017-05-29T18:33:33.451Z,32.50
2017-05-29T18:36:01.747Z,32.70
2017-05-29T18:38:30.050Z,32.70
2017-05-29T18:40:58.451Z,32.90
2017-05-29T18:43:26.772Z,33.00
2017-05-29T18:45:55.383Z,33.10
2017-05-29T18:48:23.678Z,33.60
2017-05-29T18:50:51.951Z,33.90
2017-05-29T18:53:20.228Z,34.00
2017-05-29T18:55:48.559Z,34.20
2017-05-29T18:58:16.845Z,34.60
2017-05-29T19:00:45.388Z,34.90
2017-05-29T19:03:13.708Z,35.40
2017-05-29T19:05:42.109Z,35.80
2017-05-29T19:08:10.509Z,35.70
2017-05-29T19:10:39.026Z,36.00
2017-05-29T19:13:07.332Z,36.20
2017-05-29T19:15:35.665Z,36.80
2017-05-29T19:18:03.972Z,37.00
2017-05-29T19:20:32.291Z,37.20
2017-05-29T19:23:00.578Z,37.20
2017-05-29T19:25:29.079Z,37.40
2017-05-29T19:27:57.416Z,37.60
2017-05-29T19:30:25.770Z,37.90
2017-05-29T19:32:54.133Z,38.10
2017-05-29T19:35:22.418Z,38.10
2017-05-29T19:37:50.857Z,38.20
2017-05-29T19:40:19.186Z,38.10
2017-05-29T19:42:47.646Z,38.10
2017-05-29T19:45:15.936Z,38.30
2017-05-29T19:47:44.276Z,38.50
2017-05-29T19:50:12.546Z,38.60
2017-05-29T19:52:40.859Z,38.80
2017-05-29T19:55:09.235Z,38.90
2017-05-29T19:57:36.751Z,38.90
2017-05-29T20:00:06.151Z,38.50
2017-05-29T20:02:34.678Z,39.20
2017-05-29T20:05:02.954Z,40.20
2017-05-29T20:07:31.359Z,40.80
2017-05-29T20:09:59.647Z,42.20
2017-05-29T20:12:28.033Z,42.50
2017-05-29T20:14:56.325Z,42.10
2017-05-29T20:17:24.616Z,42.20
2017-05-29T20:19:53.247Z,43.70
2017-05-29T20:22:21.601Z,42.80
2017-05-29T20:24:49.907Z,44.20
2017-05-29T20:27:18.232Z,44.00
2017-05-29T20:29:46.520Z,44.30
2017-05-29T20:32:14.794Z,46.20
2017-05-29T20:34:44.163Z,44.00
2017-05-29T20:37:12.438Z,44.40
2017-05-29T20:39:40.965Z,45.00
2017-05-29T20:42:09.295Z,45.80
2017-05-29T20:44:37.610Z,47.20
2017-05-29T20:47:05.945Z,47.20
2017-05-29T20:49:34.270Z,47.30
2017-05-29T20:52:02.580Z,47.90
2017-05-29T20:54:30.847Z,49.00
2017-05-29T20:56:59.147Z,47.70
2017-05-29T20:59:27.421Z,47.70
2017-05-29T21:01:55.741Z,46.40
2017-05-29T21:04:24.064Z,47.10
2017-05-29T21:06:52.374Z,46.80
2017-05-29T21:11:55.282Z,47.80
2017-05-29T21:14:23.536Z,48.10
2017-05-29T21:16:51.052Z,48.10
2017-05-29T21:19:19.367Z,49.30
2017-05-29T21:21:47.716Z,48.70
2017-05-29T21:24:15.997Z,49.80
2017-05-29T21:26:44.284Z,47.50
2017-05-29T21:29:12.575Z,51.90
2017-05-29T21:31:40.106Z,51.80
2017-05-29T21:34:08.388Z,51.30
2017-05-29T21:36:36.681Z,48.40
2017-05-29T21:39:04.991Z,48.80
2017-05-29T21:41:33.294Z,50.90
2017-05-29T21:44:01.581Z,49.90
2017-05-29T21:46:31.039Z,49.30
2017-05-29T21:48:59.369Z,49.90
2017-05-29T21:51:27.678Z,49.60
2017-05-29T21:53:55.978Z,48.00
2017-05-29T21:56:23.504Z,48.00
2017-05-29T21:58:51.824Z,50.90
2017-05-29T22:01:20.120Z,50.90
2017-05-29T22:03:48.418Z,49.70
2017-05-29T22:06:16.693Z,49.20
2017-05-29T22:08:44.995Z,52.60
2017-05-29T22:11:13.285Z,49.40
2017-05-29T22:13:41.574Z,49.70
2017-05-29T22:16:09.982Z,49.90
2017-05-29T22:18:38.374Z,51.40
2017-05-29T22:21:06.649Z,50.10
2017-05-29T22:23:35.032Z,49.40
2017-05-29T22:26:03.319Z,51.20
2017-05-29T22:28:31.641Z,52.10
2017-05-29T22:30:59.941Z,51.50
2017-05-29T22:33:28.213Z,49.20
2017-05-29T22:35:56.515Z,51.20
2017-05-29T22:38:24.790Z,49.90
2017-05-29T22:40:53.070Z,49.50
2017-05-29T22:43:21.359Z,49.60
2017-05-29T22:45:49.654Z,49.80
2017-05-29T22:48:17.991Z,49.10
2017-05-29T22:50:46.278Z,50.30
2017-05-29T22:53:13.831Z,50.20
2017-05-29T22:55:42.138Z,50.60
2017-05-29T22:58:09.682Z,50.50
2017-05-29T23:00:37.995Z,50.20
2017-05-29T23:03:06.346Z,49.60
2017-05-29T23:05:34.712Z,50.00
2017-05-29T23:08:03.201Z,49.10
2017-05-29T23:10:31.527Z,49.10
2017-05-29T23:12:59.818Z,49.80
2017-05-29T23:15:28.110Z,49.50
2017-05-29T23:17:56.380Z,50.10
2017-05-29T23:20:24.660Z,51.10
2017-05-29T23:22:53.016Z,51.00
2017-05-29T23:25:21.319Z,50.20
2017-05-29T23:27:48.909Z,50.20
2017-05-29T23:30:17.289Z,51.50
2017-05-29T23:32:45.570Z,49.90
2017-05-29T23:35:13.914Z,50.00
2017-05-29T23:37:42.339Z,50.00
2017-05-29T23:40:09.844Z,50.00
2017-05-29T23:42:38.137Z,50.70
2017-05-29T23:45:06.425Z,50.80
2017-05-29T23:47:34.696Z,51.40
2017-05-29T23:50:03.020Z,51.50
2017-05-29T23:52:31.349Z,51.70
2017-05-29T23:54:59.685Z,52.40
2017-05-29T23:57:27.294Z,52.40
2017-05-29T23:59:55.609Z,52.40
